Time;durP1;ratioP1;P1;durP2;ratioP2;P2;SDS_P1;SDS_P2;PMS_P1;PMS_P2;Temp;Humidity;BMP_temperature;BMP_pressure;BME280_temperature;BME280_humidity;BME280_pressure;Samples;Min_cycle;Max_cycle;Signal;HPM_P1;HPM_P2
2023/06/25 00:00:28;;;;;;;9.52;8.52;;;19.20;99.90;;;;;;5097987;27;38552;-85
2023/06/25 00:02:54;;;;;;;9.60;8.60;;;19.20;99.90;;;;;;5080736;27;39915;-85
2023/06/25 00:05:21;;;;;;;10.15;8.98;;;19.20;99.90;;;;;;5087239;27;37571;-85
2023/06/25 00:07:47;;;;;;;10.05;8.82;;;19.20;99.90;;;;;;5105213;27;37733;-85
2023/06/25 00:10:13;;;;;;;10.93;8.82;;;19.10;99.90;;;;;;5100856;27;37035;-84
2023/06/25 00:12:40;;;;;;;9.52;8.52;;;19.10;99.90;;;;;;5089302;28;37664;-86
2023/06/25 00:15:06;;;;;;;12.20;8.98;;;19.10;99.90;;;;;;5098282;27;40050;-85
2023/06/25 00:17:33;;;;;;;9.90;8.48;;;19.10;99.90;;;;;;5082586;28;36628;-85
2023/06/25 00:19:59;;;;;;;10.93;8.98;;;19.10;99.90;;;;;;5108504;27;37398;-86
2023/06/25 00:22:27;;;;;;;11.70;9.77;;;19.00;99.90;;;;;;5116180;27;40047;-84
2023/06/25 00:24:53;;;;;;;12.63;9.75;;;18.90;99.90;;;;;;5113694;27;35379;-86
2023/06/25 00:27:20;;;;;;;15.00;9.85;;;18.90;99.90;;;;;;5079225;28;37753;-86
2023/06/25 00:29:46;;;;;;;10.90;9.05;;;18.90;99.90;;;;;;5115482;27;36673;-84
2023/06/25 00:32:15;;;;;;;11.77;9.10;;;18.90;99.90;;;;;;5095154;27;40286;-85
2023/06/25 00:34:41;;;;;;;9.38;8.18;;;18.90;99.90;;;;;;5112557;27;38779;-85
2023/06/25 00:37:16;;;;;;;10.25;8.75;;;18.90;99.90;;;;;;5086425;28;39239;-85
2023/06/25 00:39:47;;;;;;;10.32;9.23;;;18.90;99.90;;;;;;5091207;27;36105;-84
2023/06/25 00:42:14;;;;;;;10.77;9.07;;;18.80;99.90;;;;;;5100862;27;38265;-85
2023/06/25 00:44:41;;;;;;;11.60;8.95;;;18.80;99.90;;;;;;5098562;27;38518;-85
2023/06/25 00:47:12;;;;;;;12.25;9.30;;;18.80;99.90;;;;;;5118103;27;38598;-85
2023/06/25 00:49:43;;;;;;;12.82;9.27;;;18.70;99.90;;;;;;5084886;28;37356;-85
2023/06/25 00:52:14;;;;;;;15.35;9.95;;;18.70;99.90;;;;;;5094826;27;38860;-85
2023/06/25 00:54:44;;;;;;;9.10;8.18;;;18.70;99.90;;;;;;5102208;27;39156;-85
2023/06/25 00:57:11;;;;;;;13.18;9.40;;;18.70;99.90;;;;;;5113791;27;37397;-85
2023/06/25 00:59:43;;;;;;;10.55;9.45;;;18.80;99.90;;;;;;5089324;27;37820;-85
2023/06/25 01:02:17;;;;;;;10.18;8.93;;;18.80;99.90;;;;;;5520824;22;40639;-79
2023/06/25 01:04:57;;;;;;;11.70;8.27;;;18.80;99.90;;;;;;5035634;28;37386;-80
2023/06/25 01:07:25;;;;;;;14.18;9.25;;;18.80;99.90;;;;;;5026263;28;37918;-79
2023/06/25 01:09:51;;;;;;;11.30;8.38;;;18.80;99.90;;;;;;5008815;28;37611;-80
2023/06/25 01:12:17;;;;;;;10.30;8.48;;;18.80;99.90;;;;;;5026583;28;38672;-79
2023/06/25 01:14:43;;;;;;;10.30;9.30;;;18.70;99.90;;;;;;5007945;28;37157;-80
2023/06/25 01:17:10;;;;;;;10.20;9.07;;;18.70;99.90;;;;;;5008882;28;38510;-80
2023/06/25 01:19:37;;;;;;;10.05;8.75;;;18.70;99.90;;;;;;5025118;28;36040;-79
2023/06/25 01:22:04;;;;;;;9.88;8.80;;;18.70;99.90;;;;;;5024222;28;39036;-79
2023/06/25 01:24:34;;;;;;;9.98;8.98;;;18.70;99.90;;;;;;5028450;28;37355;-80
2023/06/25 01:27:03;;;;;;;9.27;8.18;;;18.70;99.90;;;;;;5023460;28;38391;-80
2023/06/25 01:29:32;;;;;;;11.52;9.30;;;18.70;99.90;;;;;;5020963;28;47636;-79
2023/06/25 01:31:59;;;;;;;9.15;8.25;;;18.70;99.90;;;;;;5026415;28;39026;-78
2023/06/25 01:34:26;;;;;;;9.82;8.80;;;18.70;99.90;;;;;;5023505;28;38180;-80
2023/06/25 01:36:53;;;;;;;10.30;8.55;;;18.70;99.90;;;;;;5024916;28;36846;-80
2023/06/25 01:39:20;;;;;;;14.30;9.38;;;18.70;99.90;;;;;;5019833;28;36415;-79
2023/06/25 01:41:47;;;;;;;9.50;8.50;;;18.60;99.90;;;;;;5026042;28;37840;-80
2023/06/25 01:44:29;;;;;;;9.63;8.43;;;18.60;99.90;;;;;;5020138;28;39192;-81
2023/06/25 01:46:56;;;;;;;;;;;18.50;99.90;;;;;;5037469;28;38125;-81
2023/06/25 01:49:23;;;;;;;9.00;8.18;;;18.50;99.90;;;;;;5031455;28;36664;-81
2023/06/25 01:51:49;;;;;;;10.55;9.45;;;18.50;99.90;;;;;;5023110;28;37573;-80
2023/06/25 01:54:15;;;;;;;11.85;8.77;;;18.50;99.90;;;;;;5027482;28;37750;-80
2023/06/25 01:56:42;;;;;;;11.32;9.80;;;18.50;99.90;;;;;;5012306;28;37514;-79
2023/06/25 01:59:09;;;;;;;10.70;9.25;;;18.50;99.90;;;;;;5028129;28;36683;-80
2023/06/25 02:01:35;;;;;;;11.63;10.15;;;18.40;99.90;;;;;;5005228;28;37606;-81
2023/06/25 02:04:02;;;;;;;11.25;9.55;;;18.40;99.90;;;;;;5004908;28;37237;-81
2023/06/25 02:06:28;;;;;;;11.25;8.85;;;18.40;99.90;;;;;;5016172;28;36697;-80
2023/06/25 02:08:54;;;;;;;10.23;8.65;;;18.40;99.90;;;;;;5022936;28;37591;-80
2023/06/25 02:11:20;;;;;;;10.00;9.00;;;18.30;99.90;;;;;;5034623;28;37827;-80
2023/06/25 02:13:47;;;;;;;10.30;9.30;;;18.30;99.90;;;;;;5022128;28;37167;-80
2023/06/25 02:16:13;;;;;;;10.48;8.88;;;18.30;99.90;;;;;;5025974;28;37516;-80
2023/06/25 02:18:40;;;;;;;11.35;8.68;;;18.20;99.90;;;;;;5026703;28;36694;-79
2023/06/25 02:21:06;;;;;;;10.15;9.15;;;18.20;99.90;;;;;;5024021;28;39145;-79
2023/06/25 02:23:32;;;;;;;11.07;8.60;;;18.20;99.90;;;;;;5024039;28;38147;-79
2023/06/25 02:25:58;;;;;;;10.02;8.70;;;18.10;99.90;;;;;;5030512;28;36447;-80
2023/06/25 02:28:25;;;;;;;10.35;9.07;;;18.20;99.90;;;;;;5016069;28;36057;-82
2023/06/25 02:30:51;;;;;;;10.88;9.55;;;18.20;99.90;;;;;;5033917;28;38197;-82
2023/06/25 02:33:17;;;;;;;10.90;9.77;;;18.20;99.90;;;;;;5029677;28;38596;-81
2023/06/25 02:35:43;;;;;;;12.32;10.70;;;18.10;99.90;;;;;;5022981;28;36507;-81
2023/06/25 02:38:09;;;;;;;14.68;9.82;;;18.10;99.90;;;;;;5022959;28;36162;-82
2023/06/25 02:40:36;;;;;;;13.95;11.32;;;18.10;99.90;;;;;;5024040;28;38794;-81
2023/06/25 02:43:02;;;;;;;13.50;11.55;;;18.00;99.90;;;;;;5029460;28;39277;-81
2023/06/25 02:45:28;;;;;;;14.90;10.93;;;18.10;99.90;;;;;;5029056;28;37204;-81
2023/06/25 02:47:54;;;;;;;14.02;11.02;;;18.10;99.90;;;;;;5026404;28;37721;-82
2023/06/25 02:50:21;;;;;;;14.98;12.57;;;18.10;99.90;;;;;;5033214;28;37883;-81
2023/06/25 02:52:47;;;;;;;15.13;12.35;;;18.10;99.90;;;;;;5031312;28;38297;-81
2023/06/25 02:55:13;;;;;;;17.65;13.63;;;18.10;99.90;;;;;;5031603;28;39029;-82
2023/06/25 02:57:39;;;;;;;15.95;13.43;;;18.20;99.90;;;;;;5036001;28;36659;-82
2023/06/25 03:00:06;;;;;;;16.88;12.95;;;18.10;99.90;;;;;;5028712;28;38912;-82
2023/06/25 03:02:32;;;;;;;16.90;13.68;;;18.10;99.90;;;;;;5029690;28;37429;-79
2023/06/25 03:04:58;;;;;;;16.52;13.65;;;18.10;99.90;;;;;;5034534;28;37347;-82
2023/06/25 03:07:25;;;;;;;16.42;13.57;;;18.10;99.90;;;;;;5035276;28;36253;-81
2023/06/25 03:09:51;;;;;;;16.55;13.48;;;18.10;99.90;;;;;;5027041;28;37911;-82
2023/06/25 03:12:17;;;;;;;19.33;13.52;;;18.10;99.90;;;;;;5032483;28;37125;-79
2023/06/25 03:14:43;;;;;;;17.50;14.23;;;18.10;99.90;;;;;;5039264;28;37732;-81
2023/06/25 03:17:09;;;;;;;18.90;14.05;;;18.10;99.90;;;;;;5030298;28;36562;-80
2023/06/25 03:19:35;;;;;;;18.67;14.48;;;18.00;99.90;;;;;;5037826;28;38746;-80
2023/06/25 03:22:01;;;;;;;19.27;14.38;;;18.00;99.90;;;;;;5028729;28;39521;-81
2023/06/25 03:24:28;;;;;;;17.98;14.73;;;17.90;99.90;;;;;;5038961;28;46995;-80
2023/06/25 03:26:54;;;;;;;16.70;14.90;;;17.90;99.90;;;;;;5011411;28;37791;-82
2023/06/25 03:29:20;;;;;;;16.90;14.10;;;18.00;99.90;;;;;;5016540;28;37624;-81
2023/06/25 03:31:46;;;;;;;19.15;14.73;;;18.00;99.90;;;;;;5006615;28;37581;-82
2023/06/25 03:34:12;;;;;;;17.65;14.13;;;17.90;99.90;;;;;;5019801;28;38115;-82
2023/06/25 03:36:39;;;;;;;18.00;15.75;;;17.90;99.90;;;;;;5045534;28;36496;-82
2023/06/25 03:39:05;;;;;;;17.98;14.68;;;17.90;99.90;;;;;;5011306;28;37484;-82
2023/06/25 03:41:31;;;;;;;17.13;14.50;;;17.90;99.90;;;;;;5030154;28;38441;-82
2023/06/25 03:43:57;;;;;;;18.15;14.95;;;17.90;99.90;;;;;;5025235;28;36834;-80
2023/06/25 03:46:24;;;;;;;20.35;16.58;;;17.80;99.90;;;;;;5036027;28;20048;-81
2023/06/25 03:48:51;;;;;;;18.70;15.00;;;17.80;99.90;;;;;;5027772;28;39402;-81
2023/06/25 03:51:17;;;;;;;18.92;15.32;;;17.80;99.90;;;;;;5016709;28;39526;-80
2023/06/25 03:53:43;;;;;;;17.70;14.80;;;17.80;99.90;;;;;;5026775;28;36747;-82
2023/06/25 03:56:09;;;;;;;21.38;16.15;;;17.90;99.90;;;;;;5041924;28;37050;-81
2023/06/25 03:58:35;;;;;;;20.08;15.73;;;17.80;99.90;;;;;;5026814;28;39457;-81
2023/06/25 04:01:02;;;;;;;21.92;16.15;;;17.80;99.90;;;;;;5041685;28;39108;-81
2023/06/25 04:03:28;;;;;;;21.95;16.95;;;17.80;99.90;;;;;;5026188;28;37050;-81
2023/06/25 04:05:55;;;;;;;22.58;16.48;;;17.80;99.90;;;;;;5031896;28;36622;-81
2023/06/25 04:08:21;;;;;;;19.65;15.82;;;17.90;99.90;;;;;;5026208;28;37948;-82
2023/06/25 04:10:47;;;;;;;21.17;17.83;;;18.00;99.90;;;;;;5028955;28;38556;-81
2023/06/25 04:13:13;;;;;;;22.30;18.08;;;18.00;99.90;;;;;;5027289;28;38219;-80
2023/06/25 04:15:39;;;;;;;22.83;16.98;;;18.00;99.90;;;;;;5033784;28;36467;-81
2023/06/25 04:18:05;;;;;;;23.05;17.52;;;18.00;99.90;;;;;;5028658;28;38294;-81
2023/06/25 04:20:31;;;;;;;23.60;18.55;;;18.10;99.90;;;;;;5026459;28;38200;-83
2023/06/25 04:22:57;;;;;;;22.35;17.70;;;18.20;99.90;;;;;;5028696;28;37320;-83
2023/06/25 04:25:24;;;;;;;24.08;17.42;;;18.20;99.90;;;;;;5024966;28;37683;-83
2023/06/25 04:27:50;;;;;;;20.85;17.15;;;18.30;99.90;;;;;;5040320;28;41500;-81
2023/06/25 04:30:16;;;;;;;20.33;16.70;;;18.30;99.90;;;;;;5021222;28;37752;-80
2023/06/25 04:32:42;;;;;;;29.40;20.85;;;18.30;99.90;;;;;;5028266;28;36475;-83
2023/06/25 04:35:08;;;;;;;22.00;17.83;;;18.40;99.90;;;;;;5040662;28;36614;-82
2023/06/25 04:37:34;;;;;;;24.00;18.90;;;18.40;99.90;;;;;;5051613;28;37510;-83
2023/06/25 04:40:04;;;;;;;22.88;17.15;;;18.50;99.90;;;;;;5025070;28;38811;-82
2023/06/25 04:42:31;;;;;;;25.77;19.75;;;18.50;99.90;;;;;;5023481;28;38533;-81
2023/06/25 04:44:57;;;;;;;21.95;18.48;;;18.60;99.90;;;;;;5029504;28;36326;-81
2023/06/25 04:47:23;;;;;;;24.00;19.17;;;18.60;99.90;;;;;;5037188;28;40217;-82
2023/06/25 04:49:49;;;;;;;24.05;18.83;;;18.70;99.90;;;;;;5016978;28;37232;-82
2023/06/25 04:52:18;;;;;;;26.27;19.35;;;18.70;99.90;;;;;;5031977;28;37705;-81
2023/06/25 04:54:46;;;;;;;27.55;19.38;;;18.80;99.90;;;;;;5008566;28;37709;-81
2023/06/25 04:57:12;;;;;;;23.17;18.25;;;18.90;99.90;;;;;;5018734;28;37725;-82
2023/06/25 04:59:38;;;;;;;22.60;17.83;;;19.00;99.90;;;;;;5030305;28;38869;-82
2023/06/25 05:02:05;;;;;;;20.65;16.67;;;19.20;99.90;;;;;;5029842;28;38109;-80
2023/06/25 05:04:31;;;;;;;24.15;17.30;;;19.40;99.90;;;;;;5029630;28;37580;-81
2023/06/25 05:06:57;;;;;;;23.30;16.55;;;19.70;99.90;;;;;;5038343;28;38504;-81
2023/06/25 05:09:24;;;;;;;20.48;17.13;;;19.90;99.90;;;;;;5026984;28;37118;-79
2023/06/25 05:11:50;;;;;;;21.08;16.40;;;20.20;99.90;;;;;;5026644;28;37189;-79
2023/06/25 05:14:17;;;;;;;20.70;15.82;;;20.40;99.90;;;;;;5030469;28;36546;-79
2023/06/25 05:16:43;;;;;;;20.55;15.18;;;20.60;99.90;;;;;;5024213;28;38616;-80
2023/06/25 05:19:09;;;;;;;18.05;15.18;;;20.70;99.90;;;;;;5034995;28;38214;-79
2023/06/25 05:21:35;;;;;;;19.50;15.32;;;20.80;99.90;;;;;;5022104;28;38618;-80
2023/06/25 05:24:03;;;;;;;20.65;15.88;;;21.00;99.90;;;;;;5043780;28;36488;-80
2023/06/25 05:26:29;;;;;;;20.50;16.27;;;21.10;99.90;;;;;;5013749;28;47420;-79
2023/06/25 05:28:56;;;;;;;17.25;13.75;;;21.20;99.90;;;;;;5013791;28;38905;-79
2023/06/25 05:31:22;;;;;;;15.35;12.20;;;21.50;99.90;;;;;;5008048;28;38369;-79
2023/06/25 05:33:48;;;;;;;17.70;14.82;;;21.70;99.90;;;;;;5010857;28;36608;-79
2023/06/25 05:36:16;;;;;;;20.17;14.20;;;21.70;99.90;;;;;;5012187;28;37911;-79
2023/06/25 05:38:42;;;;;;;16.88;13.18;;;21.70;99.90;;;;;;5036842;28;37481;-79
2023/06/25 05:41:08;;;;;;;15.00;12.82;;;21.80;99.90;;;;;;5025551;28;37909;-79
2023/06/25 05:43:34;;;;;;;14.60;12.55;;;22.00;99.90;;;;;;5027138;28;36571;-77
2023/06/25 05:46:01;;;;;;;17.83;13.63;;;22.10;99.90;;;;;;5029201;28;38502;-78
2023/06/25 05:48:27;;;;;;;13.43;11.43;;;22.10;99.90;;;;;;5027210;28;38077;-77
2023/06/25 05:50:53;;;;;;;16.15;12.40;;;22.20;99.90;;;;;;5021715;28;36845;-78
2023/06/25 05:53:27;;;;;;;17.95;12.23;;;22.30;99.90;;;;;;5035514;28;37859;-78
2023/06/25 05:55:53;;;;;;;13.95;12.20;;;22.40;99.90;;;;;;5027275;28;37967;-78
2023/06/25 05:58:20;;;;;;;13.95;11.18;;;22.40;99.90;;;;;;5029748;28;39027;-78
2023/06/25 06:00:46;;;;;;;14.13;10.45;;;22.50;99.90;;;;;;5025643;28;38190;-78
2023/06/25 06:03:12;;;;;;;14.77;11.30;;;22.70;99.90;;;;;;5029767;28;37839;-78
2023/06/25 06:05:38;;;;;;;13.57;11.25;;;22.90;98.10;;;;;;5025798;28;38497;-78
2023/06/25 06:08:04;;;;;;;13.15;11.48;;;22.90;90.90;;;;;;5020068;28;37288;-77
2023/06/25 06:10:30;;;;;;;14.60;12.85;;;22.80;83.50;;;;;;5027987;28;38188;-77
2023/06/25 06:12:56;;;;;;;14.82;12.05;;;22.80;76.50;;;;;;5009025;28;37430;-76
2023/06/25 06:15:22;;;;;;;16.83;11.35;;;22.80;81.60;;;;;;5020255;28;37148;-76
2023/06/25 06:17:49;;;;;;;13.48;12.00;;;23.00;84.00;;;;;;5024176;28;37466;-79
2023/06/25 06:20:15;;;;;;;14.65;12.13;;;23.20;81.30;;;;;;5021172;28;38140;-82
2023/06/25 06:22:41;;;;;;;13.10;11.10;;;23.30;78.70;;;;;;5011008;28;39597;-81
2023/06/25 06:25:08;;;;;;;13.88;11.75;;;23.40;78.60;;;;;;5016741;28;38123;-81
2023/06/25 06:27:34;;;;;;;17.00;10.88;;;23.60;79.30;;;;;;5022195;28;37789;-80
2023/06/25 06:30:00;;;;;;;12.73;10.65;;;23.70;62.80;;;;;;5032810;28;38100;-81
2023/06/25 06:32:26;;;;;;;11.77;9.98;;;23.90;58.10;;;;;;5011925;28;38594;-80
2023/06/25 06:34:52;;;;;;;12.52;10.32;;;24.10;64.20;;;;;;5018497;28;38978;-81
2023/06/25 06:37:18;;;;;;;13.32;10.07;;;24.30;58.90;;;;;;5012708;28;38335;-81
2023/06/25 06:39:44;;;;;;;13.10;10.05;;;24.30;76.00;;;;;;5021512;28;36774;-80
2023/06/25 06:42:10;;;;;;;16.52;9.75;;;24.30;65.40;;;;;;5022739;28;36483;-79
2023/06/25 06:44:36;;;;;;;12.27;9.50;;;24.40;39.80;;;;;;5020281;28;38276;-81
2023/06/25 06:47:03;;;;;;;15.02;10.48;;;24.60;66.10;;;;;;5011637;28;35781;-81
2023/06/25 06:49:29;;;;;;;11.00;9.20;;;24.40;24.80;;;;;;5017652;28;47422;-83
2023/06/25 06:51:55;;;;;;;12.57;9.00;;;24.70;52.10;;;;;;5020510;28;37483;-82
2023/06/25 06:54:21;;;;;;;12.40;9.00;;;24.90;51.50;;;;;;5023950;28;38647;-82
2023/06/25 06:56:47;;;;;;;10.68;8.55;;;24.90;22.10;;;;;;5022195;28;37350;-81
2023/06/25 06:59:13;;;;;;;10.00;8.18;;;24.90;29.50;;;;;;5010806;28;38537;-79
2023/06/25 07:01:39;;;;;;;11.70;9.00;;;24.70;10.30;;;;;;5017050;28;36992;-79
2023/06/25 07:04:05;;;;;;;8.82;7.90;;;24.60;9.60;;;;;;5019661;28;37780;-79
2023/06/25 07:06:31;;;;;;;13.50;8.13;;;24.70;8.80;;;;;;5016011;28;38508;-79
2023/06/25 07:08:58;;;;;;;12.65;9.07;;;24.80;20.10;;;;;;5027128;28;37107;-79
2023/06/25 07:11:24;;;;;;;9.20;8.00;;;24.90;1.00;;;;;;5019949;28;36949;-79
2023/06/25 07:13:50;;;;;;;11.80;9.20;;;25.30;1.00;;;;;;5024675;28;37774;-79
2023/06/25 07:16:17;;;;;;;10.75;8.23;;;25.20;1.00;;;;;;5022564;28;38286;-79
2023/06/25 07:18:43;;;;;;;13.27;8.75;;;24.90;1.00;;;;;;5026229;28;36569;-79
2023/06/25 07:21:09;;;;;;;8.10;7.03;;;25.00;1.00;;;;;;5029094;28;37719;-79
2023/06/25 07:23:36;;;;;;;10.82;7.65;;;25.30;1.00;;;;;;5023748;28;38968;-79
2023/06/25 07:26:03;;;;;;;8.38;7.10;;;25.30;1.00;;;;;;5019938;28;37445;-78
2023/06/25 07:28:29;;;;;;;8.02;6.47;;;25.30;1.00;;;;;;5020315;28;38209;-78
2023/06/25 07:30:56;;;;;;;8.77;6.45;;;25.30;1.00;;;;;;5022678;28;37423;-79
2023/06/25 07:33:22;;;;;;;9.93;6.78;;;25.30;1.00;;;;;;5021315;28;39680;-78
2023/06/25 07:35:48;;;;;;;9.38;7.10;;;25.30;1.00;;;;;;5013167;28;38152;-79
2023/06/25 07:38:14;;;;;;;7.95;6.53;;;25.40;1.00;;;;;;5011096;28;36502;-81
2023/06/25 07:40:40;;;;;;;8.13;6.32;;;25.70;1.00;;;;;;5021915;28;38163;-80
2023/06/25 07:43:06;;;;;;;7.18;5.63;;;25.90;1.00;;;;;;5012990;28;37623;-80
2023/06/25 07:45:32;;;;;;;7.07;6.38;;;26.00;1.00;;;;;;5021306;28;37301;-79
2023/06/25 07:47:58;;;;;;;5.82;5.25;;;26.10;1.00;;;;;;5012622;28;37828;-81
2023/06/25 07:50:25;;;;;;;8.55;5.93;;;26.40;1.00;;;;;;5024241;28;37582;-81
2023/06/25 07:52:51;;;;;;;6.10;5.10;;;26.70;1.00;;;;;;5027414;28;38358;-79
2023/06/25 07:55:17;;;;;;;5.35;4.70;;;26.70;1.00;;;;;;5007334;28;37242;-79
2023/06/25 07:57:43;;;;;;;7.97;5.30;;;26.80;1.00;;;;;;5021129;28;38558;-79
2023/06/25 08:00:10;;;;;;;5.20;4.55;;;26.80;1.00;;;;;;5025700;28;36709;-79
2023/06/25 08:02:36;;;;;;;7.45;5.40;;;26.80;1.00;;;;;;5035338;28;37996;-80
2023/06/25 08:05:03;;;;;;;7.22;4.63;;;26.80;1.00;;;;;;5007566;28;37210;-84
2023/06/25 08:07:29;;;;;;;6.43;4.15;;;27.10;1.00;;;;;;5030461;28;38077;-80
2023/06/25 08:09:55;;;;;;;5.45;4.85;;;27.30;99.90;;;;;;5002205;28;37176;-80
2023/06/25 08:12:21;;;;;;;4.68;3.92;;;27.40;1.00;;;;;;5022901;28;39455;-80
2023/06/25 08:14:47;;;;;;;7.53;3.80;;;27.10;1.00;;;;;;5023176;28;39451;-79
2023/06/25 08:17:14;;;;;;;4.93;3.85;;;27.30;1.00;;;;;;5019273;28;37572;-81
2023/06/25 08:19:40;;;;;;;3.47;2.72;;;27.40;1.00;;;;;;5028431;28;35936;-80
2023/06/25 08:22:06;;;;;;;4.13;2.80;;;27.50;99.90;;;;;;5024951;28;39849;-79
2023/06/25 08:24:32;;;;;;;5.95;2.50;;;27.40;1.00;;;;;;5027026;28;38430;-85
2023/06/25 08:26:58;;;;;;;3.20;2.78;;;27.60;99.90;;;;;;5021942;28;38027;-80
2023/06/25 08:29:24;;;;;;;2.65;2.45;;;27.70;99.90;;;;;;5022215;28;37307;-83
2023/06/25 08:31:50;;;;;;;4.78;2.50;;;27.50;1.00;;;;;;5021990;28;38125;-83
2023/06/25 08:34:17;;;;;;;3.53;2.92;;;27.40;99.90;;;;;;5020001;28;37233;-82
2023/06/25 08:36:43;;;;;;;7.05;2.80;;;27.70;99.90;;;;;;5035181;28;38041;-84
2023/06/25 08:39:09;;;;;;;2.50;2.30;;;27.70;1.00;;;;;;5010986;28;35995;-82
2023/06/25 08:41:35;;;;;;;5.03;2.50;;;27.70;1.00;;;;;;5006667;28;38135;-82
2023/06/25 08:44:04;;;;;;;3.38;2.90;;;27.60;78.40;;;;;;5047004;28;38913;-82
2023/06/25 08:46:38;;;;;;;4.68;2.75;;;27.90;1.00;;;;;;5003713;28;47351;-83
2023/06/25 08:49:05;;;;;;;4.72;2.83;;;27.80;1.00;;;;;;5033036;28;37083;-82
2023/06/25 08:51:31;;;;;;;4.95;2.80;;;28.00;91.80;;;;;;5027007;28;37628;-82
2023/06/25 08:53:57;;;;;;;3.30;2.60;;;27.90;99.90;;;;;;5032934;28;39495;-83
2023/06/25 08:56:23;;;;;;;4.53;2.92;;;28.10;99.90;;;;;;5028925;28;36631;-83
2023/06/25 08:59:18;;;;;;;3.30;2.80;;;28.10;36.10;;;;;;5023501;28;37636;-82
2023/06/25 09:01:45;;;;;;;3.58;2.97;;;28.30;1.00;;;;;;5024795;28;47152;-82
2023/06/25 09:04:11;;;;;;;4.60;2.72;;;28.00;99.90;;;;;;5012064;28;37452;-79
2023/06/25 09:06:41;;;;;;;3.17;2.85;;;28.60;99.90;;;;;;5039244;28;37324;-79
2023/06/25 09:09:10;;;;;;;4.82;3.47;;;28.70;99.90;;;;;;5037107;28;36339;-83
2023/06/25 09:11:42;;;;;;;3.25;2.70;;;28.60;1.00;;;;;;5021393;28;37996;-78
2023/06/25 09:14:09;;;;;;;5.05;2.80;;;28.90;99.90;;;;;;5024531;28;37943;-78
2023/06/25 09:16:50;;;;;;;4.32;3.53;;;29.10;1.00;;;;;;5034212;28;36563;-78
2023/06/25 09:19:20;;;;;;;3.25;2.72;;;28.50;99.90;;;;;;5023367;28;36432;-81
2023/06/25 09:21:48;;;;;;;4.45;3.20;;;28.70;1.00;;;;;;5020551;28;38239;-78
2023/06/25 09:24:17;;;;;;;3.97;3.40;;;29.10;1.00;;;;;;5025120;28;38985;-78
2023/06/25 09:26:50;;;;;;;5.07;3.22;;;29.20;1.00;;;;;;5039184;28;37746;-79
2023/06/25 09:29:18;;;;;;;4.60;3.15;;;29.50;86.00;;;;;;5030870;28;37392;-78
2023/06/25 09:31:46;;;;;;;4.32;3.33;;;29.80;99.90;;;;;;5021500;28;39395;-78
2023/06/25 09:34:17;;;;;;;6.15;3.40;;;29.80;1.00;;;;;;5043924;28;37640;-78
2023/06/25 09:36:45;;;;;;;3.90;2.97;;;29.80;1.00;;;;;;5024915;28;38206;-79
2023/06/25 09:39:12;;;;;;;3.83;3.00;;;29.80;99.90;;;;;;5037232;28;37469;-77
2023/06/25 09:41:43;;;;;;;4.57;3.20;;;29.80;1.00;;;;;;5026431;28;38739;-78
2023/06/25 09:44:10;;;;;;;4.03;3.28;;;30.10;99.90;;;;;;5021806;28;39242;-76
2023/06/25 09:46:38;;;;;;;4.78;2.95;;;30.40;38.40;;;;;;5034638;28;36867;-79
2023/06/25 09:49:05;;;;;;;4.00;3.03;;;30.30;99.90;;;;;;5026831;28;36416;-78
2023/06/25 09:51:40;;;;;;;4.68;3.22;;;30.60;1.00;;;;;;5030434;28;37820;-79
2023/06/25 09:54:08;;;;;;;6.88;3.15;;;30.40;1.00;;;;;;5026910;28;39157;-78
2023/06/25 09:56:36;;;;;;;4.03;3.22;;;30.60;99.90;;;;;;5016600;28;37569;-79
2023/06/25 09:59:02;;;;;;;5.47;3.60;;;31.10;99.90;;;;;;5020851;28;36202;-78
2023/06/25 10:01:28;;;;;;;4.18;3.30;;;31.30;99.90;;;;;;5025547;28;38613;-80
2023/06/25 10:03:55;;;;;;;4.35;3.20;;;31.10;99.90;;;;;;5026149;28;38431;-80
2023/06/25 10:06:21;;;;;;;4.60;3.33;;;31.20;1.00;;;;;;5022262;28;38765;-79
2023/06/25 10:08:50;;;;;;;4.82;3.50;;;30.90;1.00;;;;;;5029152;28;37491;-79
2023/06/25 10:11:16;;;;;;;4.47;3.60;;;30.30;1.00;;;;;;5025531;28;39133;-80
2023/06/25 10:13:48;;;;;;;4.65;3.78;;;30.60;1.00;;;;;;5020068;28;38182;-79
2023/06/25 10:16:19;;;;;;;6.00;4.18;;;30.50;99.90;;;;;;5031872;28;36654;-79
2023/06/25 10:18:47;;;;;;;4.20;3.55;;;30.50;1.00;;;;;;5029113;28;36775;-79
2023/06/25 10:21:21;;;;;;;8.77;3.95;;;30.50;29.50;;;;;;5031943;28;38321;-78
2023/06/25 10:24:02;;;;;;;4.35;3.95;;;30.10;99.90;;;;;;5028247;28;39052;-79
2023/06/25 10:26:34;;;;;;;4.63;3.58;;;30.30;1.00;;;;;;5032087;28;47798;-80
2023/06/25 10:29:05;;;;;;;5.50;3.75;;;30.30;99.90;;;;;;5039404;28;36364;-78
2023/06/25 10:31:39;;;;;;;8.07;3.57;;;30.10;1.00;;;;;;5061465;28;48195;-78
2023/06/25 10:34:07;;;;;;;4.50;3.17;;;30.40;1.00;;;;;;5045265;28;39006;-77
2023/06/25 10:36:34;;;;;;;4.55;3.70;;;30.80;99.90;;;;;;5041825;28;38650;-77
2023/06/25 10:39:01;;;;;;;6.18;3.45;;;30.90;1.00;;;;;;5019898;28;36478;-77
2023/06/25 10:41:28;;;;;;;3.78;3.15;;;31.00;1.00;;;;;;5032757;28;48761;-77
2023/06/25 10:43:56;;;;;;;5.10;3.45;;;31.10;1.00;;;;;;5035137;28;36930;-78
2023/06/25 10:46:32;;;;;;;3.28;2.85;;;30.60;99.90;;;;;;5008145;28;36560;-77
2023/06/25 10:48:59;;;;;;;5.35;3.08;;;30.80;1.00;;;;;;5035309;28;38193;-77
2023/06/25 10:51:26;;;;;;;2.97;2.70;;;31.10;1.00;;;;;;5009490;28;37872;-77
2023/06/25 10:53:56;;;;;;;3.65;2.50;;;31.20;1.00;;;;;;5023335;28;39612;-80
2023/06/25 10:56:23;;;;;;;3.33;3.03;;;31.60;99.90;;;;;;5029364;28;37452;-77
2023/06/25 10:58:56;;;;;;;4.93;3.22;;;31.40;1.00;;;;;;5032871;28;37416;-79
2023/06/25 11:01:23;;;;;;;4.90;3.22;;;30.50;1.00;;;;;;5008813;28;37866;-77
2023/06/25 11:03:49;;;;;;;4.38;3.20;;;30.30;1.00;;;;;;5024608;28;38961;-78
2023/06/25 11:06:15;;;;;;;5.38;3.40;;;30.30;1.00;;;;;;5024384;28;37652;-77
2023/06/25 11:08:42;;;;;;;5.07;3.70;;;30.20;75.70;;;;;;5023869;28;37746;-78
2023/06/25 11:11:08;;;;;;;4.72;3.53;;;30.20;99.90;;;;;;5031412;28;39853;-77
2023/06/25 11:13:34;;;;;;;9.90;3.47;;;30.60;25.50;;;;;;5002261;28;37143;-76
2023/06/25 11:16:00;;;;;;;4.75;3.60;;;30.30;99.90;;;;;;5012425;28;37757;-78
2023/06/25 11:18:26;;;;;;;5.60;3.92;;;30.50;1.00;;;;;;5041517;28;46498;-78
2023/06/25 11:20:53;;;;;;;3.47;3.17;;;31.00;99.90;;;;;;5020499;28;40364;-76
2023/06/25 11:23:19;;;;;;;4.75;3.70;;;31.30;1.00;;;;;;5008502;28;38421;-76
2023/06/25 11:25:46;;;;;;;4.40;3.60;;;31.20;1.00;;;;;;5045269;28;36877;-76
2023/06/25 11:28:14;;;;;;;4.13;3.53;;;31.10;1.00;;;;;;5004808;28;36216;-75
2023/06/25 11:30:42;;;;;;;5.53;3.65;;;30.60;1.00;;;;;;4998625;28;37714;-76
2023/06/25 11:33:11;;;;;;;6.38;3.90;;;30.60;99.90;;;;;;5007826;28;37228;-76
2023/06/25 11:35:38;;;;;;;4.30;3.90;;;30.30;1.00;;;;;;5033117;28;38453;-76
2023/06/25 11:38:04;;;;;;;4.65;3.05;;;30.30;1.00;;;;;;5028897;28;37943;-76
2023/06/25 11:40:32;;;;;;;6.68;3.85;;;30.70;1.00;;;;;;5008065;28;38350;-76
2023/06/25 11:42:58;;;;;;;4.88;3.67;;;30.90;1.00;;;;;;5031809;28;39560;-76
2023/06/25 11:45:25;;;;;;;3.80;3.28;;;30.80;1.00;;;;;;5021777;28;38003;-75
2023/06/25 11:47:53;;;;;;;5.10;3.97;;;31.00;1.00;;;;;;5008154;28;36104;-78
2023/06/25 11:50:27;;;;;;;5.40;3.63;;;30.90;1.00;;;;;;5018845;28;39621;-78
2023/06/25 11:52:55;;;;;;;4.15;3.45;;;31.10;1.00;;;;;;4999325;28;37216;-76
2023/06/25 11:55:21;;;;;;;3.40;2.90;;;31.00;1.00;;;;;;5001802;28;36646;-76
2023/06/25 11:57:48;;;;;;;4.88;3.33;;;31.20;1.00;;;;;;4996684;28;36386;-77
2023/06/25 12:00:16;;;;;;;4.40;3.35;;;31.00;1.00;;;;;;5025521;28;39836;-76
2023/06/25 12:02:42;;;;;;;6.88;3.47;;;31.30;1.00;;;;;;5010865;28;38247;-77
2023/06/25 12:05:09;;;;;;;4.57;3.60;;;31.20;1.00;;;;;;5023184;28;37911;-78
2023/06/25 12:07:35;;;;;;;4.32;3.20;;;31.30;99.90;;;;;;5021895;28;37750;-78
2023/06/25 12:10:01;;;;;;;3.55;3.17;;;30.80;1.00;;;;;;5038990;28;37749;-78
2023/06/25 12:12:28;;;;;;;6.25;3.30;;;30.90;1.00;;;;;;5007460;28;37102;-78
2023/06/25 12:14:54;;;;;;;3.50;3.17;;;31.40;1.00;;;;;;5019855;28;36504;-78
2023/06/25 12:17:20;;;;;;;5.25;3.40;;;31.30;1.00;;;;;;5011641;28;36815;-78
2023/06/25 12:19:46;;;;;;;3.90;3.45;;;31.60;1.00;;;;;;5021196;28;39847;-78
2023/06/25 12:22:12;;;;;;;4.18;3.22;;;31.50;1.00;;;;;;5016212;28;39117;-79
2023/06/25 12:24:39;;;;;;;4.15;3.63;;;31.80;1.00;;;;;;5018653;28;38111;-78
2023/06/25 12:27:05;;;;;;;6.20;3.20;;;31.50;1.00;;;;;;5013532;28;37266;-79
2023/06/25 12:29:32;;;;;;;4.35;3.85;;;31.90;1.00;;;;;;5028917;28;38724;-78
2023/06/25 12:31:58;;;;;;;4.30;3.47;;;31.80;1.00;;;;;;5011444;28;37959;-79
2023/06/25 12:34:24;;;;;;;5.30;4.00;;;32.30;99.90;;;;;;5006805;28;38231;-78
2023/06/25 12:36:51;;;;;;;4.80;3.67;;;31.90;1.00;;;;;;5025402;28;37525;-78
2023/06/25 12:39:17;;;;;;;5.65;3.47;;;32.20;1.00;;;;;;5016823;28;38646;-80